Time;durP1;ratioP1;P1;durP2;ratioP2;P2;SDS_P1;SDS_P2;PMS_P1;PMS_P2;Temp;Humidity;BMP_temperature;BMP_pressure;BME280_temperature;BME280_humidity;BME280_pressure;Samples;Min_cycle;Max_cycle;Signal;HPM_P1;HPM_P2
2022/03/27 00:01:42;;;;;;;61.93;21.13;;;;;;;39.34;45.17;100835.84;4753832;30;20826;-69
2022/03/27 00:04:09;;;;;;;47.67;20.67;;;;;;;39.34;45.35;100826.91;4752934;30;20436;-70
2022/03/27 00:06:35;;;;;;;53.17;21.37;;;;;;;39.45;45.28;100829.00;4752489;30;20433;-71
2022/03/27 00:09:01;;;;;;;59.77;24.47;;;;;;;39.13;45.85;100819.34;4752473;30;20977;-70
2022/03/27 00:11:28;;;;;;;45.97;20.20;;;;;;;39.02;45.99;100809.09;4752683;30;20441;-71
2022/03/27 00:14:05;;;;;;;58.00;20.67;;;;;;;38.96;46.20;100806.53;4753702;30;20929;-72
2022/03/27 00:16:33;;;;;;;50.73;19.93;;;;;;;39.20;45.68;100798.00;4752305;30;20421;-71
2022/03/27 00:18:59;;;;;;;57.90;21.67;;;;;;;39.11;45.67;100791.75;4752375;30;20421;-69
2022/03/27 00:21:26;;;;;;;49.70;20.40;;;;;;;39.02;45.89;100799.03;4752338;30;20417;-69
2022/03/27 00:23:52;;;;;;;62.47;22.37;;;;;;;39.07;45.76;100796.19;4752186;30;20429;-71
2022/03/27 00:26:19;;;;;;;45.23;17.97;;;;;;;39.16;45.33;100794.31;4753541;30;20859;-71
2022/03/27 00:28:46;;;;;;;57.40;20.87;;;;;;;39.17;45.33;100790.50;4753365;30;20484;-71
2022/03/27 00:31:13;;;;;;;58.90;22.37;;;;;;;39.06;46.03;100791.88;4752147;30;20429;-69
2022/03/27 00:33:41;;;;;;;49.33;17.43;;;;;;;38.87;46.13;100784.03;4752144;30;20429;-70
2022/03/27 00:36:10;;;;;;;54.00;21.73;;;;;;;39.26;45.73;100776.16;4737383;30;20973;-69
2022/03/27 00:38:37;;;;;;;57.13;22.77;;;;;;;39.11;45.88;100785.53;4752020;30;20425;-70
2022/03/27 00:41:04;;;;;;;61.80;22.23;;;;;;;39.11;45.91;100775.47;4751904;30;20522;-70
2022/03/27 00:43:30;;;;;;;50.20;22.50;;;;;;;39.10;45.86;100767.63;4751778;30;20500;-70
2022/03/27 00:45:56;;;;;;;50.60;20.80;;;;;;;38.86;46.14;100768.06;4751939;30;20425;-71
2022/03/27 00:48:23;;;;;;;49.63;21.20;;;;;;;38.91;46.24;100760.56;4751781;30;20514;-72
2022/03/27 00:50:51;;;;;;;48.83;22.07;;;;;;;39.02;45.96;100768.41;4753126;30;20410;-71
2022/03/27 00:53:18;;;;;;;53.90;23.07;;;;;;;38.92;45.54;100761.38;4752960;30;20417;-72
2022/03/27 00:55:45;;;;;;;50.73;19.80;;;;;;;38.92;45.70;100758.69;4751630;30;20540;-71
2022/03/27 00:58:13;;;;;;;58.33;20.93;;;;;;;38.92;45.80;100753.25;4737105;30;20429;-71
2022/03/27 01:00:42;;;;;;;44.73;23.70;;;;;;;38.93;46.29;100744.00;4752907;30;20486;-71
2022/03/27 01:03:12;;;;;;;46.67;18.23;;;;;;;39.12;45.74;100744.50;4751571;30;20594;-71
2022/03/27 01:05:43;;;;;;;51.13;18.17;;;;;;;38.82;45.96;100751.63;4751534;30;20933;-70
2022/03/27 01:08:11;;;;;;;51.80;21.77;;;;;;;38.83;46.07;100738.84;4751356;30;20992;-71
2022/03/27 01:10:38;;;;;;;53.23;20.67;;;;;;;39.02;45.81;100746.72;4751437;30;20939;-71
2022/03/27 01:13:18;;;;;;;58.97;23.30;;;;;;;38.87;45.91;100740.63;4766303;30;20862;-71
2022/03/27 01:15:57;;;;;;;67.63;21.67;;;;;;;38.92;45.46;100747.84;4751251;30;20428;-71
2022/03/27 01:18:25;;;;;;;57.27;21.13;;;;;;;38.82;45.92;100745.41;4752896;30;20441;-71
2022/03/27 01:20:53;;;;;;;42.43;16.80;;;;;;;38.77;46.14;100751.75;4751138;30;21001;-71
2022/03/27 01:23:19;;;;;;;52.80;21.03;;;;;;;38.90;45.75;100742.69;4751275;30;20433;-71
2022/03/27 01:25:46;;;;;;;46.20;20.10;;;;;;;38.93;45.62;100738.56;4752395;30;20928;-71
2022/03/27 01:28:15;;;;;;;48.40;22.07;;;;;;;38.86;45.68;100746.38;4751058;30;20472;-71
2022/03/27 01:30:41;;;;;;;47.87;20.00;;;;;;;38.85;45.81;100737.41;4751081;30;20821;-69
2022/03/27 01:33:13;;;;;;;66.57;21.23;;;;;;;38.91;45.82;100743.50;4751017;30;20502;-71
2022/03/27 01:35:39;;;;;;;46.63;21.73;;;;;;;38.93;45.59;100736.66;4750975;30;20461;-71
2022/03/27 01:38:05;;;;;;;53.30;25.20;;;;;;;39.00;45.41;100729.97;4750944;30;20429;-69
2022/03/27 01:40:31;;;;;;;61.83;19.83;;;;;;;39.06;45.54;100732.22;4750904;30;20441;-71
2022/03/27 01:42:58;;;;;;;57.30;19.90;;;;;;;39.15;45.46;100732.22;4750664;30;21033;-69
2022/03/27 01:45:24;;;;;;;44.10;19.80;;;;;;;39.18;45.42;100721.56;4750836;30;20425;-71
2022/03/27 01:47:51;;;;;;;35.37;18.93;;;;;;;39.23;45.20;100723.31;4750804;30;20473;-71
2022/03/27 01:50:17;;;;;;;49.57;23.77;;;;;;;39.43;44.66;100727.31;4750589;30;20465;-71
2022/03/27 01:52:43;;;;;;;44.03;19.87;;;;;;;39.42;44.67;100725.72;4750807;30;20429;-71
2022/03/27 01:55:16;;;;;;;42.00;18.60;;;;;;;39.34;44.91;100730.00;4750754;30;20521;-69
2022/03/27 01:57:43;;;;;;;65.03;19.27;;;;;;;39.10;45.36;100733.19;4750776;30;20425;-71
2022/03/27 02:00:12;;;;;;;46.87;20.50;;;;;;;39.19;45.17;100725.88;4750055;30;20587;-71
2022/03/27 02:02:38;;;;;;;48.37;21.70;;;;;;;39.16;45.33;100729.19;4750514;30;20448;-70
2022/03/27 02:05:04;;;;;;;38.77;17.57;;;;;;;39.31;45.24;100724.44;4750425;30;20460;-71
2022/03/27 02:07:38;;;;;;;40.43;19.43;;;;;;;39.49;44.64;100724.13;4750363;30;20989;-71
2022/03/27 02:10:06;;;;;;;53.37;18.73;;;;;;;39.44;44.93;100732.41;4751638;30;20464;-71
2022/03/27 02:12:35;;;;;;;73.57;24.10;;;;;;;39.25;45.00;100739.28;4750447;30;20429;-72
2022/03/27 02:15:05;;;;;;;55.33;19.63;;;;;;;39.23;45.10;100734.19;4751748;30;20421;-71
2022/03/27 02:17:31;;;;;;;58.37;21.60;;;;;;;39.14;45.49;100736.03;4750286;30;20456;-71
2022/03/27 02:19:58;;;;;;;58.30;20.13;;;;;;;39.08;45.50;100745.44;4750309;30;20951;-69
2022/03/27 02:22:24;;;;;;;60.83;21.63;;;;;;;39.13;45.66;100734.44;4750234;30;20518;-69
2022/03/27 02:24:50;;;;;;;46.40;18.93;;;;;;;39.32;45.21;100736.88;4751568;30;20902;-69
2022/03/27 02:27:16;;;;;;;42.03;18.00;;;;;;;39.33;44.77;100747.41;4750177;30;20977;-71
2022/03/27 02:29:42;;;;;;;78.13;22.40;;;;;;;39.32;44.87;100742.31;4750137;30;20443;-70
2022/03/27 02:32:08;;;;;;;50.83;20.20;;;;;;;39.20;45.30;100749.16;4750156;30;20525;-71
2022/03/27 02:34:34;;;;;;;45.93;21.47;;;;;;;39.33;44.94;100750.13;4751517;30;20455;-71
2022/03/27 02:37:00;;;;;;;49.07;17.33;;;;;;;39.41;44.90;100748.53;4735406;30;20442;-69
2022/03/27 02:39:27;;;;;;;52.73;19.70;;;;;;;39.44;44.81;100756.06;4750171;30;20429;-71
2022/03/27 02:41:53;;;;;;;50.50;19.30;;;;;;;39.39;44.92;100753.50;4750171;30;20953;-70
2022/03/27 02:44:20;;;;;;;42.57;19.67;;;;;;;39.35;44.97;100757.94;4749906;30;20477;-69
2022/03/27 02:46:47;;;;;;;72.03;23.17;;;;;;;39.16;45.59;100753.63;4750076;30;20817;-69
2022/03/27 02:49:13;;;;;;;42.93;20.37;;;;;;;39.32;45.24;100753.16;4749910;30;20503;-69
2022/03/27 02:51:40;;;;;;;48.17;21.17;;;;;;;39.41;45.17;100756.66;4735560;30;20425;-69
2022/03/27 02:54:06;;;;;;;49.13;22.27;;;;;;;39.36;44.97;100754.94;4750016;30;20444;-71
2022/03/27 02:56:32;;;;;;;35.80;18.27;;;;;;;39.30;45.40;100750.78;4751204;30;20425;-71
2022/03/27 02:58:59;;;;;;;43.70;22.17;;;;;;;39.31;45.47;100754.28;4750032;30;20421;-71
2022/03/27 03:01:25;;;;;;;55.20;21.20;;;;;;;38.91;46.10;100754.34;4749756;30;20445;-71
2022/03/27 03:03:51;;;;;;;63.27;18.50;;;;;;;38.94;45.87;100759.94;4749996;30;20450;-69
2022/03/27 03:06:20;;;;;;;59.03;20.90;;;;;;;38.90;46.21;100772.53;4750028;30;20429;-71
2022/03/27 03:08:46;;;;;;;65.50;20.00;;;;;;;38.86;46.41;100768.88;4735391;30;20527;-71
2022/03/27 03:11:13;;;;;;;50.57;20.70;;;;;;;39.07;45.87;100769.06;4752275;30;20470;-69
2022/03/27 03:13:39;;;;;;;39.73;18.30;;;;;;;39.15;45.47;100789.19;4753431;30;20436;-69
2022/03/27 03:16:07;;;;;;;50.87;18.10;;;;;;;38.83;46.43;100782.25;4753366;30;20508;-70
2022/03/27 03:18:34;;;;;;;51.87;18.07;;;;;;;39.06;45.62;100783.75;4753356;30;20782;-70
2022/03/27 03:21:01;;;;;;;39.27;16.73;;;;;;;38.82;46.43;100792.28;4753386;30;20771;-72
2022/03/27 03:23:27;;;;;;;36.83;17.63;;;;;;;39.05;45.98;100790.28;4724191;30;20432;-71
2022/03/27 03:25:54;;;;;;;52.40;21.33;;;;;;;39.03;45.90;100797.94;4754170;30;20419;-69
2022/03/27 03:28:21;;;;;;;47.53;21.60;;;;;;;39.05;46.21;100797.63;4754322;30;20467;-69
2022/03/27 03:30:47;;;;;;;47.50;18.77;;;;;;;39.30;45.38;100796.13;4752797;30;20432;-72
2022/03/27 03:33:13;;;;;;;47.57;17.87;;;;;;;39.07;45.99;100796.19;4752776;30;20429;-71
2022/03/27 03:35:41;;;;;;;55.80;20.90;;;;;;;39.00;45.92;100792.34;4753044;30;20424;-71
2022/03/27 03:38:07;;;;;;;56.70;18.67;;;;;;;39.01;46.06;100791.22;4752890;30;20812;-69
2022/03/27 03:40:33;;;;;;;43.73;16.40;;;;;;;39.10;45.86;100795.56;4752581;30;20425;-71
2022/03/27 03:42:59;;;;;;;45.50;16.53;;;;;;;38.93;46.04;100796.31;4752470;30;20491;-69
2022/03/27 03:45:25;;;;;;;42.47;17.67;;;;;;;38.83;46.16;100801.22;4752772;30;20437;-71
2022/03/27 03:47:51;;;;;;;50.77;16.40;;;;;;;39.09;45.48;100807.50;4752656;30;20551;-71
2022/03/27 03:50:17;;;;;;;41.60;17.20;;;;;;;39.20;44.93;100803.44;4752274;30;20888;-69
2022/03/27 03:52:43;;;;;;;44.07;16.87;;;;;;;39.38;44.73;100806.97;4767214;30;20818;-71
2022/03/27 03:55:09;;;;;;;63.43;19.50;;;;;;;39.35;44.64;100813.03;4752675;30;20437;-71
2022/03/27 03:57:36;;;;;;;44.30;21.20;;;;;;;39.42;45.29;100815.28;4753700;30;20957;-69
2022/03/27 04:00:03;;;;;;;43.63;17.57;;;;;;;39.39;44.98;100815.91;4752359;30;20956;-69
2022/03/27 04:02:29;;;;;;;39.67;18.33;;;;;;;39.40;45.00;100812.06;4753295;30;20980;-70
2022/03/27 04:04:55;;;;;;;40.33;17.67;;;;;;;39.36;44.84;100808.41;4752430;30;20456;-71
2022/03/27 04:07:21;;;;;;;55.87;20.37;;;;;;;39.32;45.36;100812.88;4753661;30;20491;-72
2022/03/27 04:09:47;;;;;;;49.60;19.57;;;;;;;39.15;45.46;100819.81;4753358;30;20444;-71
2022/03/27 04:12:14;;;;;;;44.57;21.50;;;;;;;39.06;45.30;100818.22;4751972;30;20463;-71
2022/03/27 04:14:40;;;;;;;55.07;21.10;;;;;;;39.13;45.27;100818.56;4752232;30;20497;-71
2022/03/27 04:17:06;;;;;;;41.33;19.13;;;;;;;38.84;46.11;100819.88;4752331;30;20433;-71
2022/03/27 04:19:32;;;;;;;48.07;17.43;;;;;;;39.00;45.66;100817.56;4751918;30;20436;-71
2022/03/27 04:21:59;;;;;;;51.43;18.00;;;;;;;39.26;45.37;100812.22;4737104;30;20494;-71
2022/03/27 04:24:25;;;;;;;48.10;18.87;;;;;;;39.31;45.00;100814.00;4751937;30;21028;-70
2022/03/27 04:26:51;;;;;;;38.83;16.53;;;;;;;39.02;45.46;100814.53;4752229;30;20429;-71
2022/03/27 04:29:17;;;;;;;40.70;22.23;;;;;;;39.07;45.45;100815.19;4752055;30;20530;-71
2022/03/27 04:31:43;;;;;;;49.07;20.13;;;;;;;39.17;45.37;100806.78;4753447;30;20486;-71
2022/03/27 04:34:10;;;;;;;50.80;19.30;;;;;;;39.25;45.12;100818.75;4752060;30;20436;-69
2022/03/27 04:36:36;;;;;;;47.67;20.63;;;;;;;39.38;45.07;100825.16;4752091;30;20520;-71
2022/03/27 04:39:04;;;;;;;42.53;16.07;;;;;;;39.26;45.24;100814.13;4753320;30;20418;-70
2022/03/27 04:41:30;;;;;;;52.17;20.23;;;;;;;39.13;45.44;100815.84;4751991;30;20625;-71
2022/03/27 04:43:56;;;;;;;51.27;19.87;;;;;;;39.02;45.58;100820.75;4751830;30;20585;-70
2022/03/27 04:46:22;;;;;;;33.33;16.53;;;;;;;39.19;45.07;100812.69;4751647;30;20488;-69
2022/03/27 04:48:48;;;;;;;44.23;19.80;;;;;;;39.31;44.71;100817.50;4753131;30;20562;-71
2022/03/27 04:51:16;;;;;;;38.13;16.73;;;;;;;39.14;45.03;100825.56;4751893;30;20437;-71
2022/03/27 04:53:42;;;;;;;42.33;18.03;;;;;;;39.06;44.84;100826.34;4753008;30;20535;-71
2022/03/27 04:56:08;;;;;;;51.03;18.20;;;;;;;39.07;44.81;100827.94;4751780;30;20457;-69
2022/03/27 04:58:35;;;;;;;55.60;18.43;;;;;;;39.16;44.88;100826.88;4752955;30;20408;-70
2022/03/27 05:01:01;;;;;;;48.23;22.10;;;;;;;39.26;44.88;100835.84;4751758;30;20461;-71
2022/03/27 05:03:27;;;;;;;43.93;17.20;;;;;;;39.19;45.06;100833.59;4752925;30;20417;-69
2022/03/27 05:05:53;;;;;;;46.50;18.50;;;;;;;39.20;44.80;100833.28;4751835;30;20516;-71
2022/03/27 05:08:20;;;;;;;45.10;18.60;;;;;;;39.45;44.54;100828.22;4752603;30;21008;-71
2022/03/27 05:10:47;;;;;;;36.73;17.63;;;;;;;39.18;45.04;100832.00;4751383;30;20932;-71
2022/03/27 05:13:17;;;;;;;39.67;18.20;;;;;;;39.11;45.09;100832.44;4751475;30;20949;-71
2022/03/27 05:15:43;;;;;;;41.70;18.43;;;;;;;39.28;44.42;100836.31;4751343;30;20429;-71
2022/03/27 05:18:09;;;;;;;41.57;15.83;;;;;;;39.20;44.95;100837.91;4736902;30;20401;-71
2022/03/27 05:20:40;;;;;;;46.87;19.60;;;;;;;39.20;44.65;100838.69;4751230;30;20499;-71
2022/03/27 05:23:06;;;;;;;39.53;16.60;;;;;;;39.22;44.83;100849.22;4736855;30;20432;-71
2022/03/27 05:25:40;;;;;;;44.20;17.50;;;;;;;39.22;45.05;100844.59;4752394;30;20453;-69
2022/03/27 05:28:10;;;;;;;47.47;20.60;;;;;;;39.20;44.69;100849.56;4751062;30;20536;-71
2022/03/27 05:30:37;;;;;;;36.17;19.50;;;;;;;39.08;45.13;100856.66;4751155;30;20817;-71
2022/03/27 05:33:04;;;;;;;52.30;20.27;;;;;;;39.15;45.01;100857.00;4750705;30;20428;-72
2022/03/27 05:35:31;;;;;;;40.90;18.37;;;;;;;39.15;44.86;100857.81;4750700;30;20429;-71
2022/03/27 05:37:58;;;;;;;61.70;19.90;;;;;;;39.34;44.56;100854.84;4751067;30;20476;-71
2022/03/27 05:40:25;;;;;;;51.00;21.50;;;;;;;39.29;44.41;100857.72;4722080;30;21020;-69
2022/03/27 05:42:53;;;;;;;46.63;20.33;;;;;;;39.30;44.63;100864.75;4750887;30;20492;-72
2022/03/27 05:45:19;;;;;;;49.87;22.80;;;;;;;39.39;44.48;100862.84;4750894;30;20960;-71
2022/03/27 05:47:46;;;;;;;45.43;21.20;;;;;;;39.50;44.21;100861.44;4752097;30;20457;-70
2022/03/27 05:50:14;;;;;;;54.60;20.00;;;;;;;39.45;43.94;100867.00;4750870;30;20436;-71
2022/03/27 05:52:42;;;;;;;40.83;21.47;;;;;;;39.40;44.57;100875.28;4750614;30;20464;-71
2022/03/27 05:55:08;;;;;;;49.67;20.70;;;;;;;39.49;44.39;100873.41;4750825;30;20420;-71
2022/03/27 05:57:34;;;;;;;42.90;18.77;;;;;;;39.28;44.94;100874.31;4751858;30;20401;-71
2022/03/27 06:00:00;;;;;;;40.27;18.00;;;;;;;39.25;44.91;100877.66;4750707;30;20453;-71
2022/03/27 06:02:26;;;;;;;38.03;17.27;;;;;;;39.37;44.61;100881.38;4751891;30;20452;-71
2022/03/27 06:04:52;;;;;;;57.13;21.97;;;;;;;39.36;44.41;100884.41;4739732;30;20453;-69
2022/03/27 06:07:18;;;;;;;53.73;19.50;;;;;;;39.39;44.60;100894.63;4745718;30;20825;-70
2022/03/27 06:09:44;;;;;;;64.37;21.60;;;;;;;39.35;44.65;100904.50;4742461;30;20931;-70
2022/03/27 06:12:12;;;;;;;47.83;21.00;;;;;;;39.30;44.73;100901.94;4744116;30;20486;-70
2022/03/27 06:14:38;;;;;;;45.93;19.60;;;;;;;39.40;44.48;100907.06;4750440;30;20434;-70
2022/03/27 06:17:04;;;;;;;51.27;18.20;;;;;;;39.46;44.44;100903.88;4749630;30;20441;-71
2022/03/27 06:19:30;;;;;;;51.27;19.17;;;;;;;39.47;44.16;100916.38;4749789;30;20441;-70
2022/03/27 06:21:59;;;;;;;40.23;18.07;;;;;;;39.41;44.48;100919.50;4742432;30;20433;-70
2022/03/27 06:24:26;;;;;;;65.20;24.33;;;;;;;39.41;44.39;100925.78;4740156;30;20835;-70
2022/03/27 06:26:52;;;;;;;66.37;22.10;;;;;;;39.13;44.79;100936.00;4741628;30;20434;-70
2022/03/27 06:29:21;;;;;;;36.33;19.10;;;;;;;39.27;44.72;100940.56;4742567;30;20466;-70
2022/03/27 06:31:49;;;;;;;56.33;26.10;;;;;;;39.23;44.81;100949.34;4740847;30;20486;-71
2022/03/27 06:34:16;;;;;;;56.93;27.03;;;;;;;39.18;45.15;100952.19;4741835;30;20428;-70
2022/03/27 06:36:42;;;;;;;62.93;27.70;;;;;;;39.18;44.96;100964.94;4740677;30;20512;-71
2022/03/27 06:39:08;;;;;;;52.57;24.23;;;;;;;39.11;45.31;100965.38;4735944;30;20422;-71
2022/03/27 06:41:35;;;;;;;68.70;27.13;;;;;;;39.10;45.11;100966.47;4745316;30;20443;-71
2022/03/27 06:44:01;;;;;;;51.93;28.90;;;;;;;39.13;45.13;100971.28;4751349;30;20532;-73
2022/03/27 06:46:27;;;;;;;72.07;41.90;;;;;;;39.26;44.78;100975.03;4749911;30;20440;-71
2022/03/27 06:48:53;;;;;;;65.03;36.00;;;;;;;39.37;44.48;100984.50;4751334;30;20471;-71
2022/03/27 06:51:20;;;;;;;68.00;33.17;;;;;;;39.34;44.24;100987.03;4749228;30;20442;-72
2022/03/27 06:53:47;;;;;;;66.00;31.63;;;;;;;39.25;44.38;100987.00;4748831;30;20425;-71
2022/03/27 06:56:14;;;;;;;72.10;34.20;;;;;;;39.29;44.44;100993.41;4732165;30;20839;-73
2022/03/27 06:58:40;;;;;;;60.27;34.70;;;;;;;39.30;44.19;100995.00;4749800;30;20429;-72
2022/03/27 07:03:50;;;;;;;62.80;28.73;;;;;;;39.18;44.19;101003.72;4733334;30;20511;-71
2022/03/27 07:06:19;;;;;;;47.57;26.53;;;;;;;39.21;44.40;101011.22;4733313;30;20422;-71
2022/03/27 07:08:47;;;;;;;69.97;29.00;;;;;;;39.08;44.38;101009.38;4733250;30;20674;-72
2022/03/27 07:11:14;;;;;;;55.90;30.40;;;;;;;39.07;44.36;101013.22;4732154;30;20429;-73
2022/03/27 07:13:41;;;;;;;70.83;38.57;;;;;;;39.16;44.07;101016.00;4733940;30;20958;-72
2022/03/27 07:16:09;;;;;;;64.60;39.30;;;;;;;39.18;43.68;101025.44;4740542;30;20553;-74
2022/03/27 07:18:35;;;;;;;54.73;31.10;;;;;;;39.23;43.58;101028.03;4742229;30;20945;-72
2022/03/27 07:21:01;;;;;;;65.80;31.43;;;;;;;39.14;43.87;101040.69;4750706;30;20774;-71
2022/03/27 07:23:28;;;;;;;47.53;26.53;;;;;;;39.10;44.00;101044.34;4748844;30;21069;-76
2022/03/27 07:25:55;;;;;;;65.97;31.77;;;;;;;39.22;43.55;101045.41;4749339;30;20941;-74
2022/03/27 07:28:21;;;;;;;58.67;30.40;;;;;;;39.02;44.02;101040.47;4749550;30;20874;-76
2022/03/27 07:30:48;;;;;;;59.43;33.50;;;;;;;39.18;43.67;101054.50;4749585;30;20925;-74
2022/03/27 07:33:16;;;;;;;67.17;35.40;;;;;;;39.28;43.60;101051.50;4733907;30;20445;-72
2022/03/27 07:35:43;;;;;;;63.93;32.73;;;;;;;39.26;43.55;101052.94;4747924;30;20852;-72
2022/03/27 07:38:10;;;;;;;58.63;36.07;;;;;;;39.18;43.44;101063.44;4758988;30;20524;-72
2022/03/27 07:40:36;;;;;;;75.77;33.70;;;;;;;39.34;43.31;101061.09;4740692;30;20463;-72
2022/03/27 07:43:02;;;;;;;62.97;33.00;;;;;;;39.47;42.78;101070.25;4740915;30;20495;-72
2022/03/27 07:45:31;;;;;;;54.97;34.17;;;;;;;39.32;42.86;101071.47;4743725;30;20437;-72
2022/03/27 07:47:58;;;;;;;49.43;31.27;;;;;;;39.48;42.74;101066.47;4744962;30;20531;-72
2022/03/27 07:50:26;;;;;;;50.27;31.17;;;;;;;39.45;43.01;101070.59;4746373;30;20443;-72
2022/03/27 07:52:52;;;;;;;67.87;33.23;;;;;;;39.53;43.03;101071.72;4742006;30;20506;-73
2022/03/27 07:55:20;;;;;;;79.10;32.13;;;;;;;39.53;42.74;101069.03;4748604;30;20425;-73
2022/03/27 07:57:46;;;;;;;68.60;29.67;;;;;;;39.60;42.54;101068.59;4742388;30;20567;-73
2022/03/27 08:00:14;;;;;;;81.30;33.00;;;;;;;39.57;42.56;101072.72;4749802;30;20457;-69
2022/03/27 08:02:42;;;;;;;90.63;36.03;;;;;;;39.56;42.86;101084.69;4751900;30;20493;-73
2022/03/27 08:05:09;;;;;;;59.60;32.27;;;;;;;39.54;43.10;101089.66;4752585;30;20582;-72
2022/03/27 08:07:35;;;;;;;78.73;38.97;;;;;;;39.30;43.28;101097.34;4737325;30;20491;-72
2022/03/27 08:10:02;;;;;;;64.30;34.40;;;;;;;39.31;43.03;101107.06;4751543;30;20448;-77
2022/03/27 08:12:29;;;;;;;57.93;31.97;;;;;;;39.39;42.87;101109.03;4752278;30;20425;-74
2022/03/27 08:14:55;;;;;;;64.17;33.33;;;;;;;39.45;43.02;101119.44;4751667;30;20468;-74
2022/03/27 08:17:22;;;;;;;77.40;33.70;;;;;;;39.41;43.26;101118.47;4749630;30;20932;-73
2022/03/27 08:19:49;;;;;;;92.70;40.07;;;;;;;39.57;42.99;101124.31;4750827;30;20502;-72
2022/03/27 08:22:15;;;;;;;54.33;31.03;;;;;;;39.53;43.11;101131.47;4736004;30;20473;-71
2022/03/27 08:24:42;;;;;;;69.37;33.30;;;;;;;39.61;42.90;101128.03;4751202;30;20437;-72
2022/03/27 08:27:08;;;;;;;81.17;37.07;;;;;;;39.78;42.40;101124.63;4750878;30;20436;-73
2022/03/27 08:29:41;;;;;;;85.70;39.07;;;;;;;39.80;42.31;101125.09;4751126;30;20477;-72
2022/03/27 08:32:10;;;;;;;94.47;42.70;;;;;;;39.71;42.26;101140.53;4737075;30;20469;-73
2022/03/27 08:34:38;;;;;;;70.60;40.47;;;;;;;39.62;42.38;101137.78;4737291;30;20955;-71
2022/03/27 08:37:08;;;;;;;84.87;39.33;;;;;;;39.85;41.99;101133.09;4722798;30;20425;-72
2022/03/27 08:39:35;;;;;;;65.77;39.63;;;;;;;39.84;42.30;101138.84;4751773;30;20432;-72
2022/03/27 08:42:01;;;;;;;91.10;42.10;;;;;;;39.66;42.13;101136.06;4751722;30;20889;-72
2022/03/27 08:44:29;;;;;;;92.73;41.67;;;;;;;39.36;42.47;101134.09;4751662;30;20558;-73
2022/03/27 08:46:58;;;;;;;70.77;43.70;;;;;;;39.49;42.61;101136.72;4751784;30;20449;-70
2022/03/27 08:49:29;;;;;;;89.40;42.33;;;;;;;39.79;42.06;101141.72;4745861;30;20993;-71
2022/03/27 08:52:02;;;;;;;82.80;38.93;;;;;;;39.87;41.73;101135.50;4749531;30;20805;-72
2022/03/27 08:54:42;;;;;;;76.40;37.37;;;;;;;39.86;41.82;101129.28;4740998;30;20425;-72
2022/03/27 08:57:35;;;;;;;59.90;35.60;;;;;;;40.06;41.62;101127.13;4750986;30;20433;-70
2022/03/27 09:00:03;;;;;;;70.53;37.57;;;;;;;40.10;41.25;101120.75;4751239;30;20941;-72
2022/03/27 09:02:29;;;;;;;84.80;33.57;;;;;;;40.23;41.07;101128.00;4752056;30;20871;-73
2022/03/27 09:04:56;;;;;;;75.97;32.37;;;;;;;40.27;40.93;101125.44;4752409;30;20453;-72
2022/03/27 09:07:24;;;;;;;91.63;40.10;;;;;;;40.40;40.71;101129.94;4752106;30;20474;-72
2022/03/27 09:09:51;;;;;;;61.87;33.50;;;;;;;40.49;40.45;101121.81;4740747;30;20484;-71
2022/03/27 09:12:20;;;;;;;61.60;33.80;;;;;;;40.55;40.60;101115.91;4749728;30;20809;-72
2022/03/27 09:14:47;;;;;;;67.43;30.43;;;;;;;40.51;40.04;101130.47;4752696;30;20409;-70
2022/03/27 09:17:14;;;;;;;68.97;33.90;;;;;;;40.57;40.24;101131.09;4750702;30;20511;-70
2022/03/27 09:19:43;;;;;;;46.97;22.97;;;;;;;40.61;39.69;101132.88;4737153;30;20524;-69
2022/03/27 09:22:15;;;;;;;65.77;24.60;;;;;;;40.61;40.11;101121.19;4750884;30;20464;-71
2022/03/27 09:24:46;;;;;;;35.90;19.97;;;;;;;40.53;39.89;101111.94;4736422;30;20516;-73
2022/03/27 09:27:13;;;;;;;42.93;19.50;;;;;;;40.55;40.32;101121.34;4752009;30;20456;-71
2022/03/27 09:30:06;;;;;;;34.20;16.33;;;;;;;40.47;40.01;101108.56;4752336;30;20797;-69
2022/03/27 09:32:38;;;;;;;34.67;18.90;;;;;;;40.54;40.15;101110.81;4750763;30;20542;-73
2022/03/27 09:35:17;;;;;;;48.97;18.43;;;;;;;40.56;40.22;101103.13;4751021;30;20437;-73
2022/03/27 09:37:49;;;;;;;48.07;20.43;;;;;;;40.56;39.97;101111.28;4750136;30;20468;-70
2022/03/27 09:40:17;;;;;;;45.40;18.00;;;;;;;40.64;40.11;101112.41;4750481;30;20435;-69
2022/03/27 09:42:44;;;;;;;39.43;18.80;;;;;;;40.62;40.12;101111.91;4750594;30;20492;-69
2022/03/27 09:45:15;;;;;;;32.50;16.70;;;;;;;40.65;40.01;101103.13;4750712;30;20826;-69
2022/03/27 09:47:43;;;;;;;40.40;19.50;;;;;;;40.67;39.77;101096.25;4751270;30;20472;-69
2022/03/27 09:50:32;;;;;;;34.30;19.43;;;;;;;40.65;39.94;101095.78;4750328;30;20470;-67
2022/03/27 09:53:17;;;;;;;36.07;19.00;;;;;;;40.76;39.94;101105.22;4754684;30;20445;-68
2022/03/27 09:55:43;;;;;;;54.13;19.77;;;;;;;40.77;39.64;101108.75;4741934;30;20446;-67
2022/03/27 09:58:09;;;;;;;42.13;18.90;;;;;;;40.67;39.88;101107.13;4750640;30;20478;-67
2022/03/27 10:00:36;;;;;;;52.40;20.40;;;;;;;40.54;40.79;101102.66;4743317;30;20425;-69
2022/03/27 10:03:11;;;;;;;44.07;20.00;;;;;;;40.61;39.95;101100.25;4744827;30;20421;-68
2022/03/27 10:05:38;;;;;;;36.33;17.47;;;;;;;40.69;40.02;101085.84;4747756;30;20432;-68
2022/03/27 10:08:04;;;;;;;36.60;18.80;;;;;;;40.71;39.87;101086.34;4749432;30;20852;-69
2022/03/27 10:10:30;;;;;;;39.23;16.47;;;;;;;40.68;39.94;101097.03;4750447;30;20409;-71
2022/03/27 10:12:58;;;;;;;53.37;15.87;;;;;;;40.52;40.33;101077.72;4748855;30;20459;-66
2022/03/27 10:15:27;;;;;;;38.70;19.57;;;;;;;40.56;40.16;101084.09;4750444;30;20457;-67
2022/03/27 10:18:05;;;;;;;31.30;17.50;;;;;;;40.60;40.31;101074.19;4747382;30;20456;-71
2022/03/27 10:20:36;;;;;;;45.77;17.43;;;;;;;40.64;40.15;101071.59;4740883;30;20436;-69
2022/03/27 10:23:04;;;;;;;51.23;19.87;;;;;;;40.69;40.21;101063.28;4740038;30;20434;-68
2022/03/27 10:25:37;;;;;;;35.93;19.53;;;;;;;40.83;39.60;101055.78;4740295;30;20449;-69
2022/03/27 10:28:04;;;;;;;34.73;16.07;;;;;;;40.68;39.66;101050.81;4739581;30;20460;-68
2022/03/27 10:30:31;;;;;;;30.60;15.73;;;;;;;40.74;40.03;101047.59;4744500;30;20476;-68
2022/03/27 10:33:00;;;;;;;49.20;17.67;;;;;;;40.80;39.59;101029.19;4748692;30;20433;-66
2022/03/27 10:35:32;;;;;;;49.93;20.63;;;;;;;40.78;39.79;101029.53;4734601;30;20429;-68
2022/03/27 10:38:44;;;;;;;47.60;20.33;;;;;;;40.80;39.97;101031.91;4749797;30;20504;-68
2022/03/27 10:41:20;;;;;;;45.23;22.23;;;;;;;40.79;39.83;101028.41;4751351;30;20429;-71
2022/03/27 10:44:18;;;;;;;35.60;19.10;;;;;;;40.75;40.29;101022.00;4750442;30;20902;-69
2022/03/27 10:46:46;;;;;;;46.00;17.00;;;;;;;40.70;40.02;101010.50;4749500;30;20433;-69
2022/03/27 10:49:15;;;;;;;40.27;16.47;;;;;;;40.71;40.01;101007.47;4750003;30;20506;-71
2022/03/27 10:51:46;;;;;;;40.53;16.53;;;;;;;40.47;40.81;101007.13;4749881;30;20421;-68
2022/03/27 10:54:20;;;;;;;36.93;17.60;;;;;;;40.53;40.73;101005.88;4749814;30;20421;-70
2022/03/27 10:56:48;;;;;;;45.67;17.47;;;;;;;40.63;40.51;100997.38;4749289;30;20464;-69
2022/03/27 10:59:20;;;;;;;50.30;18.73;;;;;;;40.68;40.44;101001.84;4751246;30;20448;-68
2022/03/27 11:01:58;;;;;;;34.13;14.73;;;;;;;40.57;40.65;100990.50;4749559;30;20825;-68
2022/03/27 11:04:40;;;;;;;48.93;17.50;;;;;;;40.78;40.47;100985.22;4750972;30;20405;-71
2022/03/27 11:07:25;;;;;;;32.70;18.33;;;;;;;40.50;40.69;100984.75;4749559;30;20429;-68
2022/03/27 11:09:51;;;;;;;39.33;15.77;;;;;;;40.65;40.57;100994.38;4749788;30;20456;-70
2022/03/27 11:12:28;;;;;;;51.60;18.87;;;;;;;40.54;40.42;100991.97;4749896;30;20432;-68
2022/03/27 11:14:54;;;;;;;39.60;18.50;;;;;;;40.73;40.32;100979.94;4750943;30;20423;-69
2022/03/27 11:17:32;;;;;;;43.87;18.40;;;;;;;40.76;40.31;100982.00;4750915;30;20420;-69